createdAt,value
2022-08-04T00:01:37.078Z,41.76
2022-08-04T00:04:05.832Z,41.68
2022-08-04T00:06:35.006Z,41.35
2022-08-04T00:09:03.330Z,40.35
2022-08-04T00:11:30.548Z,40.75
2022-08-04T00:14:03.532Z,41.75
2022-08-04T00:16:37.855Z,41.19
2022-08-04T00:19:07.448Z,40.71
2022-08-04T00:21:35.400Z,40.72
2022-08-04T00:24:12.394Z,40.68
2022-08-04T00:26:39.742Z,40.16
2022-08-04T00:29:09.151Z,40.61
2022-08-04T00:31:56.443Z,41.04
2022-08-04T00:34:27.615Z,41.05
2022-08-04T00:36:54.560Z,40.65
2022-08-04T00:39:23.986Z,41.06
2022-08-04T00:41:56.326Z,40.96
2022-08-04T00:44:29.455Z,40.65
2022-08-04T00:47:17.175Z,40.96
2022-08-04T00:50:21.605Z,40.96
2022-08-04T00:52:48.181Z,40.79
2022-08-04T00:55:22.490Z,40.76
2022-08-04T00:58:01.187Z,40.95
2022-08-04T01:00:40.770Z,40.96
2022-08-04T01:03:27.668Z,40.85
2022-08-04T01:06:10.023Z,41.29
2022-08-04T01:08:45.822Z,41.49
2022-08-04T01:11:31.146Z,41.36
2022-08-04T01:14:18.667Z,41.67
2022-08-04T01:16:48.900Z,41.92
2022-08-04T01:19:18.583Z,42.12
2022-08-04T01:21:51.267Z,42.17
2022-08-04T01:24:33.564Z,41.90
2022-08-04T01:27:04.338Z,42.00
2022-08-04T01:29:46.563Z,41.87
2022-08-04T01:32:21.029Z,42.10
2022-08-04T01:35:04.342Z,42.40
2022-08-04T01:37:39.411Z,42.25
2022-08-04T01:40:06.848Z,42.44
2022-08-04T01:42:33.881Z,42.56
2022-08-04T01:45:03.834Z,42.40
2022-08-04T01:47:31.006Z,42.73
2022-08-04T01:50:07.883Z,43.08
2022-08-04T01:52:42.316Z,42.68
2022-08-04T01:55:13.394Z,42.58
2022-08-04T01:57:47.062Z,42.87
2022-08-04T02:00:15.221Z,42.53
2022-08-04T02:02:44.451Z,42.58
2022-08-04T02:05:14.061Z,43.06
2022-08-04T02:07:43.545Z,42.86
2022-08-04T02:10:15.823Z,43.32
2022-08-04T02:13:00.863Z,43.19
2022-08-04T02:15:29.179Z,43.31
2022-08-04T02:18:05.711Z,43.37
2022-08-04T02:20:36.578Z,43.71
2022-08-04T02:23:09.566Z,43.74
2022-08-04T02:25:51.536Z,43.82
2022-08-04T02:28:36.546Z,43.42
2022-08-04T02:31:23.395Z,43.84
2022-08-04T02:33:56.756Z,43.34
2022-08-04T02:36:24.485Z,43.70
2022-08-04T02:39:00.966Z,42.92
2022-08-04T02:41:29.159Z,43.65
2022-08-04T02:43:56.692Z,43.32
2022-08-04T02:46:23.501Z,43.49
2022-08-04T02:48:51.003Z,43.21
2022-08-04T02:51:20.011Z,43.37
2022-08-04T02:53:48.961Z,42.68
2022-08-04T02:56:19.399Z,42.71
2022-08-04T02:58:53.393Z,43.26
2022-08-04T03:01:21.632Z,43.35
2022-08-04T03:03:48.373Z,43.34
2022-08-04T03:06:24.969Z,43.58
2022-08-04T03:08:53.893Z,43.18
2022-08-04T03:11:39.262Z,43.48
2022-08-04T03:14:09.672Z,43.36
2022-08-04T03:16:40.096Z,43.14
2022-08-04T03:19:09.151Z,43.26
2022-08-04T03:21:54.366Z,43.43
2022-08-04T03:24:43.350Z,43.30
2022-08-04T03:27:22.889Z,43.66
2022-08-04T03:29:55.281Z,43.74
2022-08-04T03:32:27.917Z,43.83
2022-08-04T03:35:13.608Z,43.84
2022-08-04T03:38:02.635Z,43.82
2022-08-04T03:40:47.597Z,44.15
2022-08-04T03:43:57.721Z,44.03
2022-08-04T03:46:07.184Z,43.79
2022-08-04T03:48:54.093Z,44.24
2022-08-04T03:51:43.660Z,44.11
2022-08-04T03:54:10.215Z,44.32
2022-08-04T03:56:43.074Z,44.50
2022-08-04T03:59:20.850Z,44.20
2022-08-04T04:02:02.831Z,44.48
2022-08-04T04:04:33.188Z,44.74
2022-08-04T04:07:06.722Z,44.87
2022-08-04T04:09:57.177Z,44.70
2022-08-04T04:12:27.582Z,44.42
2022-08-04T04:15:09.223Z,44.78
2022-08-04T04:17:43.395Z,44.71
2022-08-04T04:20:10.978Z,44.74
2022-08-04T04:22:56.063Z,45.13
2022-08-04T04:25:42.436Z,45.25
2022-08-04T04:28:45.460Z,45.53
2022-08-04T04:31:11.573Z,45.49
2022-08-04T04:33:44.463Z,45.30
2022-08-04T04:36:12.164Z,45.32
2022-08-04T04:39:00.945Z,45.33
2022-08-04T04:41:32.465Z,44.83
2022-08-04T04:44:15.794Z,44.73
2022-08-04T04:47:03.287Z,44.82
2022-08-04T04:49:49.881Z,44.46
2022-08-04T04:52:30.665Z,44.34
2022-08-04T04:55:18.622Z,44.01
2022-08-04T04:57:53.524Z,44.82
2022-08-04T05:00:22.195Z,45.04
2022-08-04T05:03:29.596Z,45.08
2022-08-04T05:05:59.408Z,45.01
2022-08-04T05:08:43.127Z,45.08
2022-08-04T05:11:24.883Z,45.22
2022-08-04T05:14:38.328Z,45.22
2022-08-04T05:16:44.827Z,45.18
2022-08-04T05:19:14.468Z,45.03
2022-08-04T05:21:50.963Z,44.93
2022-08-04T05:24:21.228Z,44.94
2022-08-04T05:26:50.086Z,45.16
2022-08-04T05:29:30.938Z,45.08
2022-08-04T05:31:59.967Z,45.16
2022-08-04T05:34:28.434Z,44.89
2022-08-04T05:36:58.783Z,45.05
2022-08-04T05:39:33.836Z,45.10
2022-08-04T05:42:04.650Z,44.25
2022-08-04T05:44:32.050Z,44.42
2022-08-04T05:47:01.293Z,44.30
2022-08-04T05:49:30.704Z,44.10
2022-08-04T05:52:01.269Z,43.96
2022-08-04T05:54:28.404Z,43.80
2022-08-04T05:56:57.861Z,43.71
2022-08-04T05:59:25.851Z,43.20
2022-08-04T06:01:57.221Z,43.25
2022-08-04T06:04:35.412Z,43.35
2022-08-04T06:07:02.438Z,43.15
2022-08-04T06:09:29.016Z,42.69
2022-08-04T06:12:03.476Z,42.72
2022-08-04T06:14:44.341Z,42.27
2022-08-04T06:18:32.624Z,42.25
2022-08-04T06:20:20.275Z,41.93
2022-08-04T06:22:49.880Z,41.81
2022-08-04T06:25:20.951Z,42.08
2022-08-04T06:27:48.246Z,41.76
2022-08-04T06:30:19.272Z,41.93
2022-08-04T06:32:49.798Z,41.61
2022-08-04T06:35:19.275Z,41.57
2022-08-04T06:37:46.633Z,41.69
2022-08-04T06:40:31.965Z,41.51
2022-08-04T06:43:06.790Z,41.33
2022-08-04T06:45:34.818Z,40.52
2022-08-04T06:48:01.925Z,39.79
2022-08-04T06:51:26.384Z,39.82
2022-08-04T06:53:15.494Z,39.62
2022-08-04T06:55:49.029Z,39.53
2022-08-04T06:58:16.061Z,39.41
2022-08-04T07:00:46.026Z,39.60
2022-08-04T07:03:16.373Z,39.08
2022-08-04T07:05:43.443Z,39.22
2022-08-04T07:08:12.509Z,39.40
2022-08-04T07:10:41.638Z,39.46
2022-08-04T07:13:11.156Z,38.96
2022-08-04T07:15:37.977Z,38.75
2022-08-04T07:18:05.226Z,38.29
2022-08-04T07:20:36.793Z,38.45
2022-08-04T07:23:07.114Z,39.20
2022-08-04T07:25:58.744Z,38.77
2022-08-04T07:28:22.288Z,39.28
2022-08-04T07:30:49.554Z,37.17
2022-08-04T07:33:19.157Z,37.48
2022-08-04T07:36:10.543Z,36.36
2022-08-04T07:38:33.155Z,34.85
2022-08-04T07:41:00.019Z,35.52
2022-08-04T07:43:27.751Z,35.70
2022-08-04T07:45:54.369Z,35.38
2022-08-04T07:48:24.529Z,35.95
2022-08-04T07:50:54.404Z,35.71
2022-08-04T07:53:52.959Z,35.47
2022-08-04T07:56:08.138Z,35.46
2022-08-04T07:58:35.008Z,35.11
2022-08-04T08:01:01.834Z,35.04
2022-08-04T08:03:32.037Z,34.64
2022-08-04T08:06:17.704Z,34.92
2022-08-04T08:08:55.072Z,34.49
2022-08-04T08:11:21.823Z,34.38
2022-08-04T08:13:51.395Z,34.26
2022-08-04T08:16:21.004Z,33.10
2022-08-04T08:18:50.328Z,34.07
2022-08-04T08:21:21.773Z,31.67
2022-08-04T08:23:51.836Z,32.86
2022-08-04T08:26:20.747Z,31.87
2022-08-04T08:28:47.386Z,31.66
2022-08-04T08:31:14.013Z,31.82
2022-08-04T08:33:41.287Z,32.84
2022-08-04T08:36:09.908Z,32.54
2022-08-04T08:38:39.250Z,31.47
2022-08-04T08:41:08.549Z,31.95
2022-08-04T08:44:03.794Z,31.99
2022-08-04T08:46:49.346Z,31.68
2022-08-04T08:50:00.988Z,32.17
2022-08-04T08:53:00.643Z,32.39
2022-08-04T08:55:43.417Z,32.02
2022-08-04T08:58:47.767Z,31.82
2022-08-04T09:01:14.342Z,32.30
2022-08-04T09:03:49.823Z,31.51
2022-08-04T09:06:32.381Z,31.36
2022-08-04T09:09:07.712Z,31.65
2022-08-04T09:11:42.464Z,31.16
2022-08-04T09:14:11.347Z,30.64
2022-08-04T09:16:54.606Z,31.13
2022-08-04T09:19:38.945Z,30.59
2022-08-04T09:22:12.466Z,31.35
2022-08-04T09:24:44.890Z,30.53
2022-08-04T09:27:21.598Z,30.53
2022-08-04T09:30:03.168Z,29.55
2022-08-04T09:32:39.144Z,30.05
2022-08-04T09:35:15.812Z,30.39
2022-08-04T09:37:46.555Z,29.58
2022-08-04T09:40:31.729Z,28.91
2022-08-04T09:43:09.735Z,29.44
2022-08-04T09:45:44.214Z,30.07
2022-08-04T09:48:17.875Z,29.87
2022-08-04T09:50:50.007Z,29.86
2022-08-04T09:53:35.741Z,29.47
2022-08-04T09:56:03.502Z,29.43
2022-08-04T09:58:37.284Z,29.43
2022-08-04T10:01:08.557Z,28.50
2022-08-04T10:03:35.712Z,28.83
2022-08-04T10:06:08.045Z,28.94
2022-08-04T10:08:40.651Z,28.36
2022-08-04T10:11:15.133Z,28.57
2022-08-04T10:13:52.869Z,28.04
2022-08-04T10:16:38.642Z,28.53
2022-08-04T10:19:34.678Z,27.68
2022-08-04T10:22:28.077Z,28.01
2022-08-04T10:24:47.694Z,28.23
2022-08-04T10:27:21.830Z,26.68
2022-08-04T10:29:48.746Z,26.50
2022-08-04T10:32:43.273Z,26.54
2022-08-04T10:35:16.469Z,26.78
2022-08-04T10:38:00.194Z,26.61
2022-08-04T10:40:37.561Z,27.22
2022-08-04T10:43:22.777Z,27.00
2022-08-04T10:45:58.051Z,25.77
2022-08-04T10:48:36.892Z,26.08
2022-08-04T10:51:11.753Z,25.79
2022-08-04T10:53:39.179Z,26.08
2022-08-04T10:56:20.108Z,25.34
2022-08-04T10:58:48.926Z,25.28
2022-08-04T11:02:03.041Z,24.16
2022-08-04T11:04:12.753Z,24.56
2022-08-04T11:06:39.404Z,24.24
2022-08-04T11:09:05.947Z,25.05
2022-08-04T11:12:01.254Z,25.49
2022-08-04T11:14:34.068Z,25.45
2022-08-04T11:17:07.729Z,24.24
2022-08-04T11:19:45.132Z,25.76
2022-08-04T11:22:23.240Z,24.49
2022-08-04T11:24:52.274Z,25.12
2022-08-04T11:27:26.135Z,24.24
2022-08-04T11:29:55.818Z,23.79
2022-08-04T11:32:26.124Z,23.58
2022-08-04T11:34:53.478Z,23.09
2022-08-04T11:37:27.126Z,23.49
2022-08-04T11:39:54.041Z,22.94
2022-08-04T11:42:24.871Z,23.22
2022-08-04T11:45:07.953Z,23.03
2022-08-04T11:47:40.563Z,22.61
2022-08-04T11:50:17.217Z,21.87
2022-08-04T11:52:46.282Z,20.85
2022-08-04T11:55:17.002Z,21.94
2022-08-04T11:57:43.658Z,21.98
2022-08-04T12:00:12.645Z,21.47
2022-08-04T12:02:49.677Z,20.80
2022-08-04T12:05:36.016Z,19.98
2022-08-04T12:08:10.104Z,21.00
2022-08-04T12:10:47.833Z,20.47
2022-08-04T12:13:14.600Z,20.18
2022-08-04T12:15:48.500Z,19.59
2022-08-04T12:18:30.410Z,19.39
2022-08-04T12:20:59.820Z,18.07
2022-08-04T12:23:30.086Z,18.88
2022-08-04T12:26:01.010Z,18.05
2022-08-04T12:29:08.592Z,18.02
2022-08-04T12:31:28.051Z,17.60
2022-08-04T12:34:04.719Z,17.32
2022-08-04T12:36:55.566Z,17.80
2022-08-04T12:39:22.576Z,17.56
2022-08-04T12:41:55.681Z,17.31
2022-08-04T12:44:36.537Z,16.57
2022-08-04T12:47:27.236Z,16.40
2022-08-04T12:50:00.897Z,15.91
2022-08-04T12:52:51.697Z,15.40
2022-08-04T12:55:18.031Z,15.00
2022-08-04T12:57:44.640Z,14.44
2022-08-04T13:00:16.063Z,14.48
2022-08-04T13:02:47.061Z,13.69
2022-08-04T13:05:16.797Z,14.46
2022-08-04T13:07:50.810Z,14.15
2022-08-04T13:10:18.475Z,13.52
2022-08-04T13:12:51.639Z,14.15
2022-08-04T13:15:21.246Z,13.43
2022-08-04T13:18:11.826Z,13.37
2022-08-04T13:20:45.079Z,12.76
2022-08-04T13:23:20.178Z,12.55
2022-08-04T13:26:42.534Z,12.80
2022-08-04T13:28:43.588Z,12.98
2022-08-04T13:31:12.707Z,12.49
2022-08-04T13:33:42.721Z,12.01
2022-08-04T13:36:09.549Z,11.97
2022-08-04T13:38:48.924Z,11.47
2022-08-04T13:41:15.468Z,11.60
2022-08-04T13:44:15.992Z,11.50
2022-08-04T13:46:32.910Z,10.90
2022-08-04T13:51:57.889Z,11.21
2022-08-04T13:54:35.487Z,11.18
2022-08-04T13:57:15.289Z,11.02
2022-08-04T13:59:41.853Z,10.52
2022-08-04T14:02:11.315Z,9.91
2022-08-04T14:04:45.203Z,11.08
2022-08-04T14:07:18.174Z,10.16
2022-08-04T14:10:03.652Z,10.46
2022-08-04T14:12:38.065Z,10.55
2022-08-04T14:15:54.661Z,10.54
2022-08-04T14:18:20.868Z,10.44
2022-08-04T14:20:59.801Z,10.70
2022-08-04T14:23:31.698Z,10.51
2022-08-04T14:25:58.511Z,10.44
2022-08-04T14:29:08.752Z,10.07
2022-08-04T14:31:21.661Z,10.36
2022-08-04T14:34:04.509Z,9.55
2022-08-04T14:37:13.947Z,10.30
2022-08-04T14:39:41.726Z,10.21
2022-08-04T14:42:46.104Z,10.21
2022-08-04T14:45:27.497Z,10.26
2022-08-04T14:47:56.999Z,10.16
2022-08-04T14:50:37.528Z,9.63
2022-08-04T14:53:05.020Z,9.73
2022-08-04T14:55:36.668Z,9.47
2022-08-04T14:58:36.059Z,10.14
2022-08-04T15:00:53.298Z,9.75
2022-08-04T15:03:20.468Z,9.87
2022-08-04T15:05:55.179Z,9.32
2022-08-04T15:08:32.927Z,10.29
2022-08-04T15:11:02.504Z,9.72
2022-08-04T15:13:32.478Z,9.47
2022-08-04T15:16:07.100Z,10.54
2022-08-04T15:18:39.046Z,9.84
2022-08-04T15:21:06.260Z,11.28
2022-08-04T15:23:39.695Z,10.38
2022-08-04T15:26:10.115Z,10.87
2022-08-04T15:28:37.655Z,11.72
2022-08-04T15:31:04.643Z,10.74
2022-08-04T15:33:40.026Z,11.32
2022-08-04T15:36:11.674Z,10.93
2022-08-04T15:39:03.708Z,10.75
2022-08-04T15:41:46.484Z,10.74
2022-08-04T15:44:58.583Z,10.80
2022-08-04T15:47:26.241Z,11.07
2022-08-04T15:50:03.338Z,11.20
2022-08-04T15:52:32.030Z,12.07
2022-08-04T15:55:18.126Z,12.19
2022-08-04T15:57:59.229Z,12.86
2022-08-04T16:00:28.520Z,13.73
2022-08-04T16:02:57.666Z,13.90
2022-08-04T16:05:24.235Z,13.88
2022-08-04T16:08:04.597Z,14.72
2022-08-04T16:11:00.925Z,14.90
2022-08-04T16:13:30.069Z,14.81
2022-08-04T16:16:03.539Z,15.57
2022-08-04T16:18:30.447Z,15.60
2022-08-04T16:20:57.995Z,15.90
2022-08-04T16:23:52.527Z,16.83
2022-08-04T16:26:45.244Z,17.03
2022-08-04T16:29:29.007Z,17.10
2022-08-04T16:32:05.353Z,16.96
2022-08-04T16:34:48.289Z,17.47
2022-08-04T16:37:18.971Z,17.46
2022-08-04T16:39:50.852Z,17.64
2022-08-04T16:42:30.536Z,18.11
2022-08-04T16:45:02.348Z,18.17
2022-08-04T16:47:47.204Z,18.16
2022-08-04T16:50:26.006Z,18.42
2022-08-04T16:52:54.074Z,18.68
2022-08-04T16:55:27.188Z,18.87
2022-08-04T16:57:54.692Z,18.86
2022-08-04T17:00:31.989Z,19.41
2022-08-04T17:03:00.796Z,19.04
2022-08-04T17:05:38.447Z,20.05
2022-08-04T17:08:28.710Z,20.48
2022-08-04T17:10:53.480Z,20.35
2022-08-04T17:14:01.983Z,20.35
2022-08-04T17:16:18.960Z,20.86
2022-08-04T17:18:51.666Z,20.87
2022-08-04T17:21:20.036Z,21.27
2022-08-04T17:24:16.543Z,21.10
2022-08-04T17:29:43.144Z,21.28
2022-08-04T17:32:17.289Z,21.22
2022-08-04T17:34:48.793Z,21.50
2022-08-04T17:40:06.335Z,21.99
2022-08-04T17:42:39.182Z,21.57
2022-08-04T17:48:07.495Z,21.65
2022-08-04T17:50:36.887Z,21.85
2022-08-04T17:53:13.298Z,21.97
2022-08-04T17:55:40.091Z,22.84
2022-08-04T17:58:21.137Z,22.70
2022-08-04T18:00:51.169Z,22.52
2022-08-04T18:03:30.145Z,22.81
2022-08-04T18:06:03.502Z,22.74
2022-08-04T18:08:39.778Z,22.76
2022-08-04T18:11:10.276Z,23.08
2022-08-04T18:13:42.813Z,23.04
2022-08-04T18:16:22.157Z,23.01
2022-08-04T18:19:10.347Z,23.21
2022-08-04T18:21:46.640Z,23.50
2022-08-04T18:24:35.113Z,23.68
2022-08-04T18:27:19.580Z,24.22
2022-08-04T18:30:14.556Z,24.18
2022-08-04T18:32:34.180Z,24.60
2022-08-04T18:35:05.736Z,24.44
2022-08-04T18:38:06.384Z,24.15
2022-08-04T18:43:14.451Z,24.46
2022-08-04T18:45:41.646Z,24.22
2022-08-04T18:48:17.636Z,27.41
2022-08-04T18:51:09.180Z,28.77
2022-08-04T18:53:35.634Z,28.84
2022-08-04T18:56:03.556Z,28.51
2022-08-04T18:58:32.732Z,27.63
2022-08-04T19:01:01.103Z,27.05
2022-08-04T19:03:33.346Z,27.61
2022-08-04T19:06:03.073Z,27.61
2022-08-04T19:08:34.578Z,27.75
2022-08-04T19:11:36.846Z,27.82
2022-08-04T19:13:58.073Z,29.28
2022-08-04T19:16:28.791Z,33.00
2022-08-04T19:18:56.000Z,30.98
2022-08-04T19:21:59.299Z,32.38
2022-08-04T19:24:32.517Z,31.60
2022-08-04T19:27:06.924Z,31.10
2022-08-04T19:29:37.829Z,31.38
2022-08-04T19:32:13.800Z,30.69
2022-08-04T19:34:47.321Z,30.80
2022-08-04T19:37:58.336Z,30.01
2022-08-04T19:40:05.725Z,31.77
2022-08-04T19:42:34.843Z,31.29
2022-08-04T19:45:04.498Z,32.01
2022-08-04T19:48:11.674Z,32.97
2022-08-04T19:50:23.693Z,32.97
2022-08-04T19:52:53.014Z,32.83
2022-08-04T19:55:22.365Z,32.35
2022-08-04T19:57:54.628Z,32.42
2022-08-04T20:00:33.225Z,32.43
2022-08-04T20:03:01.859Z,32.12
2022-08-04T20:05:34.204Z,32.01
2022-08-04T20:08:18.969Z,32.88
2022-08-04T20:10:51.923Z,32.45
2022-08-04T20:13:19.635Z,32.52
2022-08-04T20:15:58.086Z,33.01
2022-08-04T20:21:19.635Z,33.00
2022-08-04T20:23:51.200Z,32.87
2022-08-04T20:26:17.840Z,33.18
2022-08-04T20:28:51.962Z,32.72
2022-08-04T20:31:19.106Z,33.46
2022-08-04T20:33:53.489Z,33.21
2022-08-04T20:36:20.958Z,33.46
2022-08-04T20:38:52.000Z,34.06
2022-08-04T20:41:22.269Z,33.91
2022-08-04T20:43:56.191Z,33.29
2022-08-04T20:46:29.261Z,33.76
2022-08-04T20:48:57.473Z,33.06
2022-08-04T20:51:32.161Z,33.34
2022-08-04T20:54:01.324Z,33.07
2022-08-04T20:56:31.333Z,34.28
2022-08-04T20:59:01.464Z,34.11
2022-08-04T21:01:37.011Z,34.14
2022-08-04T21:04:27.930Z,35.24
2022-08-04T21:06:56.024Z,36.69
2022-08-04T21:09:38.077Z,35.77
2022-08-04T21:12:27.767Z,35.44
2022-08-04T21:14:56.744Z,35.29
2022-08-04T21:17:57.725Z,35.63
2022-08-04T21:20:13.880Z,35.13
2022-08-04T21:22:40.881Z,35.22
2022-08-04T21:25:15.867Z,35.01
2022-08-04T21:27:43.464Z,36.11
2022-08-04T21:30:14.998Z,35.33
2022-08-04T21:32:51.132Z,35.46
2022-08-04T21:35:21.409Z,35.04
2022-08-04T21:38:03.381Z,35.18
2022-08-04T21:40:37.869Z,35.61
2022-08-04T21:43:05.551Z,35.24
2022-08-04T21:45:36.431Z,36.06
2022-08-04T21:48:05.058Z,36.06
2022-08-04T21:50:31.643Z,35.08
2022-08-04T21:53:00.539Z,35.74
2022-08-04T21:56:05.446Z,35.24
2022-08-04T21:58:16.147Z,35.25
2022-08-04T22:00:43.585Z,35.54
2022-08-04T22:06:04.954Z,37.36
2022-08-04T22:08:31.897Z,37.43
2022-08-04T22:10:59.049Z,37.02
2022-08-04T22:13:52.343Z,37.37
2022-08-04T22:16:15.534Z,40.05
2022-08-04T22:18:42.567Z,40.09
2022-08-04T22:21:17.140Z,40.70
2022-08-04T22:23:50.563Z,42.16
2022-08-04T22:26:20.245Z,40.18
2022-08-04T22:28:53.841Z,38.00
2022-08-04T22:31:24.760Z,40.12
2022-08-04T22:33:56.138Z,39.46
2022-08-04T22:36:25.355Z,40.48
2022-08-04T22:39:01.543Z,38.76
2022-08-04T22:41:34.380Z,39.80
2022-08-04T22:44:16.149Z,39.73
2022-08-04T22:46:42.906Z,38.31
2022-08-04T22:49:09.545Z,39.61
2022-08-04T22:51:36.102Z,39.34
2022-08-04T22:54:02.678Z,38.80
2022-08-04T22:56:45.432Z,38.01
2022-08-04T22:59:17.402Z,38.95
2022-08-04T23:01:59.564Z,38.34
2022-08-04T23:04:29.224Z,38.76
2022-08-04T23:06:55.769Z,38.82
2022-08-04T23:09:27.031Z,38.30
2022-08-04T23:12:28.398Z,39.50
2022-08-04T23:14:56.211Z,38.49
2022-08-04T23:17:23.234Z,38.98
2022-08-04T23:19:58.291Z,38.30
2022-08-04T23:22:42.235Z,39.38
2022-08-04T23:25:18.484Z,36.93
2022-08-04T23:27:59.727Z,41.55
2022-08-04T23:30:30.417Z,40.50
2022-08-04T23:32:57.456Z,40.22
2022-08-04T23:35:24.153Z,41.66
2022-08-04T23:37:57.133Z,41.30
2022-08-04T23:40:33.509Z,40.59
2022-08-04T23:43:01.971Z,39.42
2022-08-04T23:46:04.169Z,39.54
2022-08-04T23:48:20.844Z,40.46
2022-08-04T23:50:48.271Z,40.60
2022-08-04T23:53:18.750Z,40.14
2022-08-04T23:55:49.380Z,39.62
2022-08-04T23:58:18.864Z,39.51
